CAO61P LEBL-LSGG
Flight info
| Callsign | CAO61P |
|---|---|
| Flight time | N/A |
| Altitude | 34000 |
| Route | DALIN DCT PIVUS DCT DIBER DCT ADITA DCT MAXIR DCT LUSOL DCT BODRU DCT OKTET DCT IRMAR DCT KINES |
| Aircraft | B77L/H-SDE1E2E3FGHIJ2J3J4J5M1RWXY/LB1D1 |
Departure
| Time | 2026-05-04 17:31 |
|---|---|
| Airport | Josep Tarradellas Barcelona-El Prat Airport (LEBL) |
Arrival
| Time | N/A |
|---|---|
| Airport | Geneva International Airport (LSGG) |
| Time | Latitude | Longitude | Altitude | Speed | Heading |
|---|---|---|---|---|---|
| 2026-05-04 16:58 | 41.29770 | 2.06533 | 24 ft | 0 kts | 246° |
| 2026-05-04 17:14 | 41.29758 | 2.06499 | 26 ft | 3 kts | 242° |
| 2026-05-04 17:15 | 41.29746 | 2.06479 | 28 ft | 3 kts | 228° |
| 2026-05-04 17:15 | 41.29701 | 2.06466 | 24 ft | 4 kts | 167° |
| 2026-05-04 17:16 | 41.29649 | 2.06492 | 24 ft | 5 kts | 156° |
| 2026-05-04 17:16 | 41.29615 | 2.06625 | 22 ft | 7 kts | 66° |
| 2026-05-04 17:17 | 41.29641 | 2.06701 | 22 ft | 7 kts | 65° |
| 2026-05-04 17:17 | 41.29700 | 2.06874 | 20 ft | 7 kts | 65° |
| 2026-05-04 17:18 | 41.29713 | 2.06913 | 22 ft | 7 kts | 65° |
| 2026-05-04 17:18 | 41.29758 | 2.07043 | 21 ft | 8 kts | 65° |
| 2026-05-04 17:19 | 41.29805 | 2.07187 | 20 ft | 9 kts | 69° |
| 2026-05-04 17:19 | 41.29863 | 2.07367 | 19 ft | 11 kts | 65° |
| 2026-05-04 17:20 | 41.29928 | 2.07554 | 21 ft | 11 kts | 65° |
| 2026-05-04 17:20 | 41.29994 | 2.07745 | 22 ft | 11 kts | 65° |
| 2026-05-04 17:20 | 41.30027 | 2.07839 | 26 ft | 10 kts | 65° |
| 2026-05-04 17:21 | 41.30032 | 2.07991 | 25 ft | 9 kts | 141° |
| 2026-05-04 17:21 | 41.29937 | 2.08051 | 25 ft | 6 kts | 159° |
| 2026-05-04 17:22 | 41.29884 | 2.08078 | 27 ft | 7 kts | 160° |
| 2026-05-04 17:22 | 41.29853 | 2.08093 | 26 ft | 7 kts | 159° |
| 2026-05-04 17:23 | 41.29645 | 2.08211 | 22 ft | 13 kts | 156° |
| 2026-05-04 17:23 | 41.29557 | 2.08263 | 20 ft | 14 kts | 156° |
| 2026-05-04 17:23 | 41.29379 | 2.08371 | 26 ft | 14 kts | 155° |
| 2026-05-04 17:24 | 41.29290 | 2.08425 | 26 ft | 14 kts | 155° |
| 2026-05-04 17:24 | 41.29006 | 2.08596 | 27 ft | 15 kts | 155° |
| 2026-05-04 17:25 | 41.28926 | 2.08644 | 24 ft | 12 kts | 155° |
| 2026-05-04 17:25 | 41.28878 | 2.08775 | 26 ft | 10 kts | 67° |
| 2026-05-04 17:26 | 41.28962 | 2.09021 | 25 ft | 17 kts | 66° |
| 2026-05-04 17:26 | 41.29109 | 2.09451 | 24 ft | 17 kts | 65° |
| 2026-05-04 17:27 | 41.29206 | 2.09733 | 23 ft | 15 kts | 65° |
| 2026-05-04 17:27 | 41.29275 | 2.09922 | 23 ft | 9 kts | 57° |
| 2026-05-04 17:28 | 41.29336 | 2.10076 | 24 ft | 10 kts | 65° |
| 2026-05-04 17:29 | 41.29300 | 2.10288 | 20 ft | 8 kts | 157° |
| 2026-05-04 17:29 | 41.29202 | 2.10268 | 25 ft | 0 kts | 244° |
| 2026-05-04 17:30 | 41.29013 | 2.09720 | 27 ft | 98 kts | 245° |
| 2026-05-04 17:31 | 41.28086 | 2.07039 | 232 ft | 200 kts | 245° |
| 2026-05-04 17:31 | 41.25027 | 2.03784 | 2266 ft | 218 kts | 171° |
| 2026-05-04 17:32 | 41.22025 | 2.04748 | 3925 ft | 220 kts | 172° |
| 2026-05-04 17:33 | 41.17492 | 2.05503 | 6024 ft | 221 kts | 181° |
| 2026-05-04 17:33 | 41.15893 | 2.05547 | 6345 ft | 241 kts | 184° |
| 2026-05-04 17:34 | 41.10477 | 2.05313 | 8067 ft | 271 kts | 186° |
| 2026-05-04 17:34 | 41.08597 | 2.05240 | 8989 ft | 269 kts | 186° |
| 2026-05-04 17:35 | 41.02849 | 2.05001 | 10565 ft | 300 kts | 182° |
| 2026-05-04 17:35 | 40.98859 | 2.07728 | 10908 ft | 370 kts | 130° |
| 2026-05-04 17:35 | 40.97743 | 2.10898 | 11426 ft | 389 kts | 111° |
| 2026-05-04 17:36 | 40.96972 | 2.14378 | 12097 ft | 398 kts | 110° |
| 2026-05-04 17:36 | 40.96124 | 2.17888 | 12997 ft | 402 kts | 112° |
| 2026-05-04 17:36 | 40.95224 | 2.21399 | 13918 ft | 402 kts | 112° |
| 2026-05-04 17:36 | 40.94721 | 2.25023 | 14431 ft | 418 kts | 92° |
| 2026-05-04 17:37 | 40.95297 | 2.28843 | 15082 ft | 432 kts | 69° |
| 2026-05-04 17:37 | 40.96862 | 2.32245 | 15876 ft | 436 kts | 48° |
| 2026-05-04 17:37 | 40.98963 | 2.35130 | 16515 ft | 439 kts | 44° |
| 2026-05-04 17:37 | 41.01146 | 2.38008 | 17157 ft | 447 kts | 44° |
| 2026-05-04 17:38 | 41.03370 | 2.40916 | 17889 ft | 452 kts | 44° |
| 2026-05-04 17:38 | 41.05616 | 2.43854 | 18592 ft | 456 kts | 44° |
| 2026-05-04 17:38 | 41.07877 | 2.46831 | 19231 ft | 461 kts | 44° |
| 2026-05-04 17:38 | 41.10158 | 2.49853 | 19831 ft | 467 kts | 44° |